• Join FlightAware (Why Join?)
  • Login
  • US Flag 
Rudolph Flight #1: Arrived! 
06:12AM EST


 

Airport Tracker/Info


-or-


 

Live Flight TrackerFlight Track Log ✈ N6711L ✈ 03-Oct-2013 ✈ KOPF - KAPF

Flight Track Log - Related Links

Times and Time Zones

All times are in EDT time to prevent confusion due to time zone crossing. See the N6711L flight status page for this flight to view local times or setup timezone preferences in your user account.

Time Position Orientation Groundspeed Altitude Reporting Facility
EDT Latitude Longitude Course Direction KTS MPH feet Rate Location/Type
04:22PM 25.9089 -80.2731 84° East 96 110 500  Level Miami Center
04:23PM 25.9117 -80.2453 84° East 107 123 1,600 1,080 Climbing Miami Center
04:24PM 25.9206 -80.2178 70° East 116 133 2,700 1,020 Climbing Miami Center
04:25PM 25.9408 -80.2417 313° West 130 150 3,700 1,140 Climbing Miami Center
04:25PM 25.9386 -80.2508 255° West 128 147 4,000 360 Climbing Miami Center
04:26PM 25.9544 -80.2858 297° West 164 189 4,100 180 Climbing Miami Center
04:26PM 25.9544 -80.2950 270° West 168 193 4,200 60 Climbing Miami Center
04:27PM 25.9681 -80.3347 291° West 164 189 4,200  Level Miami Center
04:27PM 25.9681 -80.3369 270° West 167 192 4,200  Level Miami Center
04:28PM 25.9897 -80.3839 297° West 174 200 4,200  Level Miami Center
04:28PM 25.9875 -80.3931 255° West 175 201 4,200  Level Miami Center
04:29PM 25.9928 -80.4372 278° West 178 205 4,200  Level Miami Center
04:29PM 25.9925 -80.4417 266° West 179 206 4,200  Level Miami Center
04:30PM 26.0039 -80.4931 284° West 178 205 4,200  Level Miami Center
04:30PM 25.9997 -80.4975 224° Southwest 175 201 4,200  Level Miami Center
04:31PM 26.0047 -80.5417 277° West 178 205 4,200 -120 Level Miami Center
04:31PM 26.0003 -80.5531 247° West 179 206 4,100 -120 Descending Miami Center
04:32PM 25.9967 -80.6083 266° West 177 204 4,100  Level Miami Center
04:33PM 26.0061 -80.6547 283° West 167 192 4,200 60 Climbing Miami Center
04:33PM 26.0058 -80.6617 267° West 174 200 4,200 -120 Level Miami Center
04:34PM 26.0172 -80.7061 286° West 172 198 4,100  Descending Miami Center
04:34PM 26.0169 -80.7153 268° West 177 204 4,200  Climbing Miami Center
04:35PM 26.0306 -80.7572 290° West 177 204 4,100 -60 Descending Miami Center
04:36PM 26.0397 -80.8039 282° West 177 204 4,100  Level Miami Center
04:37PM 26.0528 -80.8550 286° West 177 204 4,100  Level Miami Center
04:38PM 26.0767 -80.9022 299° West 177 204 4,200 -60 Climbing Miami Center
04:39PM 26.1069 -80.9447 308° West 172 198 4,000 -60 Descending Miami Center
04:40PM 26.1264 -80.9942 294° West 177 204 4,100  Climbing Miami Center
04:41PM 26.1417 -81.0386 291° West 177 204 4,100  Level Miami Center
04:42PM 26.1633 -81.0881 296° West 177 204 4,200  Climbing Miami Center
04:43PM 26.1786 -81.1394 288° West 172 198 4,200 -60 Level Miami Center
04:44PM 26.1936 -81.1931 287° West 172 198 4,100  Descending Miami Center
04:45PM 26.2086 -81.2469 287° West 172 198 4,200  Climbing Miami Center
04:46PM 26.2217 -81.2983 286° West 172 198 4,100  Descending Miami Center
04:47PM 26.2014 -81.3486 246° West 158 182 4,200  Climbing Miami Center
04:48PM 26.1814 -81.3942 244° Southwest 170 196 4,100 -60 Descending Miami Center
04:49PM 26.1589 -81.4417 242° Southwest 175 201 4,100  Level Miami Center
04:50PM 26.1367 -81.4872 241° Southwest 175 201 4,100  Level Miami Center
04:52PM 26.1396 -81.5472 273° West  Level FlightAware Approximate
04:59PM 26.1500 -81.7667 263° West  Level FlightAware Approximate
05:00PM 26.1524 -81.7756 263° West  Level Estimated
05:01PM 26.1524 -81.7756 263° West  Level Estimated
05:02PM 26.1524 -81.7756 263° West  Level Estimated
05:03PM 26.1524 -81.7756 263° West  Level Estimated
05:04PM 26.1524 -81.7756 263° West  Level Estimated
05:05PM 26.1524 -81.7756 263° West  Level Estimated